TimeCDT,TemperatureF,Dew PointF,Humidity,Sea Level PressureIn,VisibilityMPH,Wind Direction,Wind SpeedMPH,Gust SpeedMPH,PrecipitationIn,Events,Conditions,WindDirDegrees,DateUTC
12:52 AM,63.0,48.9,60,30.14,10.0,ESE,6.9,-,N/A,,Scattered Clouds,120,2013-05-25 05:52:00
1:52 AM,63.0,50.0,63,30.12,10.0,SE,6.9,-,N/A,,Mostly Cloudy,130,2013-05-25 06:52:00
2:52 AM,64.9,51.1,61,30.11,10.0,SSE,12.7,-,N/A,,Overcast,150,2013-05-25 07:52:00
3:52 AM,64.9,52.0,63,30.13,10.0,South,11.5,-,N/A,,Mostly Cloudy,170,2013-05-25 08:52:00
4:52 AM,66.0,54.0,65,30.12,10.0,South,10.4,-,N/A,,Overcast,170,2013-05-25 09:52:00
5:52 AM,64.0,55.0,73,30.12,10.0,South,8.1,-,N/A,,Clear,170,2013-05-25 10:52:00
6:52 AM,64.0,55.0,73,30.12,10.0,SSE,5.8,-,N/A,,Clear,150,2013-05-25 11:52:00
7:52 AM,64.9,57.0,75,30.12,10.0,South,8.1,-,N/A,,Clear,170,2013-05-25 12:52:00
8:52 AM,66.9,59.0,76,30.12,10.0,SSE,5.8,-,N/A,,Clear,150,2013-05-25 13:52:00
9:52 AM,70.0,60.1,71,30.12,10.0,South,9.2,-,N/A,,Clear,180,2013-05-25 14:52:00
10:52 AM,73.9,62.1,66,30.12,10.0,SW,8.1,-,N/A,,Clear,230,2013-05-25 15:52:00
11:52 AM,78.1,63.0,60,30.11,10.0,WSW,10.4,16.1,N/A,,Mostly Cloudy,250,2013-05-25 16:52:00
12:52 PM,82.9,64.9,54,30.09,10.0,Calm,Calm,-,N/A,,Scattered Clouds,0,2013-05-25 17:52:00
1:52 PM,84.9,63.0,48,30.06,10.0,SSW,17.3,21.9,N/A,,Partly Cloudy,210,2013-05-25 18:52:00
2:52 PM,82.9,63.0,51,30.04,10.0,SW,15.0,24.2,N/A,,Clear,230,2013-05-25 19:52:00
3:52 PM,82.9,63.0,51,30.03,10.0,South,17.3,25.3,N/A,,Mostly Cloudy,180,2013-05-25 20:52:00
4:52 PM,82.9,63.0,51,30.01,10.0,South,21.9,27.6,N/A,,Clear,170,2013-05-25 21:52:00
5:52 PM,84.0,62.1,47,29.99,10.0,South,17.3,23.0,N/A,,Clear,190,2013-05-25 22:52:00
6:52 PM,82.0,62.1,51,29.98,10.0,South,12.7,-,N/A,,Clear,190,2013-05-25 23:52:00
7:52 PM,80.1,63.0,56,29.99,10.0,South,8.1,19.6,N/A,,Clear,180,2013-05-26 00:52:00
8:52 PM,77.0,63.0,62,29.99,10.0,SSE,8.1,-,N/A,,Clear,160,2013-05-26 01:52:00
9:52 PM,73.0,64.0,73,30.03,10.0,SE,4.6,-,N/A,,Scattered Clouds,140,2013-05-26 02:52:00
10:52 PM,72.0,64.0,76,30.04,10.0,East,4.6,-,N/A,,Mostly Cloudy,100,2013-05-26 03:52:00
11:52 PM,70.0,63.0,78,30.03,10.0,ESE,5.8,-,N/A,,Clear,120,2013-05-26 04:52:00